LELCLEAL

Guest
Details From LELC - Murcia San Javier
To LEAL - Alicante
Flight Number -
Tags Routegen Generated
Created
Modified
Stats Distance 44 nm / 82 km
Max Altitude 100 ft / 30 m
Waypoints 5
Social Downloads 5
Likes 0
Share VATSIM

Download

Looking for another format? Having issues loading an existing format? Contact us
Advertisement - Login to hide

Notes

Departing runway 4 LELC. Arriving runway 10 LEAL.

Route

LELC +37.83_+000.74 +38.04_+000.55 +38.25_+000.36 LEAL

ID Type Via Altitude Latitude Longitude Leg Dist Tot Dist Heading (true) Name
O LELC APT - 100 ft / 30 m 37.78219˚ -0.80283˚ - 0 nm - -
+37.83_+000.74 DME - 100 ft / 30 m 37.83277˚ -0.73732˚ 4 nm 4 nm 46° / 46° -
+38.04_+000.55 DME - 100 ft / 30 m 38.04354˚ -0.54859˚ 15 nm 19 nm 35° / 35° -
+38.25_+000.36 DME - 100 ft / 30 m 38.25432˚ -0.35986˚ 15 nm 35 nm 35° / 35° -
O LEAL APT - 0 ft / 0 m 38.27982˚ -0.54132˚ 8 nm 44 nm 280° / 280° -

Altitude Profile

Advertisement - Login to hide

LELC

Details ICAO LELC (MJV)
Name Murcia San Javier
Region Spain
Timezone Europe/Madrid (UTC+1.0)
Stats Elevation 11 ft / 3 m (AMSL)
Location 37.780256° -0.812257°
Runways 3
Magnetic Variation 0.121° E

METAR

LELC 171300Z 08004KT 040V150 CAVOK 14/M00 Q1028 NOSIG

Decode

TAF

TAF LELC 171100Z 1712/1812 30010KT CAVOK TX15/1714Z TN03/1806Z BECMG 1712/1714 05008KT

Decode

Departure Runways

ID Width Length Bearing (true) Bearing (mag) Surface Threshold Offset Overrun Length
05L 164 ft / 50 m 6,553 ft / 1,997 m 45.62° 45.50° Asphalt 656 ft / 200 m 0 ft / 0 m
05R 148 ft / 45 m 7,553 ft / 2,302 m 45.63° 45.51° Asphalt 0 ft / 0 m 656 ft / 200 m
14 197 ft / 60 m 2,657 ft / 810 m 136.05° 135.93° Grass 0 ft / 0 m 0 ft / 0 m
23L 148 ft / 45 m 7,553 ft / 2,302 m 225.65° 225.53° Asphalt 0 ft / 0 m 656 ft / 200 m
23R 164 ft / 50 m 6,553 ft / 1,997 m 225.63° 225.51° Asphalt 656 ft / 200 m 0 ft / 0 m
32 197 ft / 60 m 2,657 ft / 810 m 316.05° 315.93° Grass 0 ft / 0 m 0 ft / 0 m

LEAL

Details ICAO LEAL (ALC)
Name Alicante
Region Spain
Timezone Europe/Madrid (UTC+1.0)
Stats Elevation 141 ft / 43 m (AMSL)
Location 38.282169° -0.558157°
Runways 1
Magnetic Variation 0.184° E

METAR

LEAL 171330Z 12008KT 030V190 CAVOK 14/M01 Q1027 NOSIG

Decode

TAF

TAF TAF LEAL 171100Z 1712/1812 30005KT 9999 FEW030 TX15/1713Z TN04/1806Z TEMPO 1712/1717 18005KT

Decode

Destination Runways

ID Width Length Bearing (true) Bearing (mag) Surface Threshold Offset Overrun Length
10 148 ft / 45 m 9,799 ft / 2,987 m 100.07° 99.89° Asphalt 0 ft / 0 m 164 ft / 50 m
28 148 ft / 45 m 9,799 ft / 2,987 m 280.09° 279.91° Asphalt 0 ft / 0 m 197 ft / 60 m

Approach Navaids

Runway Type Ident Frequency Range Bearing (true) Bearing (mag) Slope Elevation
10 Localiser IAT 110.30 MHz 18 nm / 33 km 100.09° 99.91° - 29 ft / 9 m (AMSL)
10 Glidescope IAT 110.30 MHz 10 nm / 19 km 100.09° 99.91° 3.00° 129 ft / 39 m (AMSL)
10 DME IAT 110.30 MHz 18 nm / 33 km - - - 129 ft / 39 m (AMSL)

Popular Alternatives